createdAt,value
2019-05-16T08:09:30.588Z,32.95
2019-05-16T08:12:01.607Z,33.11
2019-05-16T08:14:30.366Z,33.39
2019-05-16T08:17:01.149Z,33.52
2019-05-16T08:19:30.574Z,33.52
2019-05-16T08:22:01.231Z,33.41
2019-05-16T08:24:30.948Z,33.25
2019-05-16T08:27:01.183Z,33.14
2019-05-16T08:29:31.728Z,33.14
2019-05-16T08:32:02.240Z,33.14
2019-05-16T08:34:32.202Z,33.02
2019-05-16T08:37:01.126Z,33.02
2019-05-16T08:39:31.419Z,32.90
2019-05-16T08:42:07.814Z,32.88
2019-05-16T08:44:32.373Z,32.75
2019-05-16T08:47:06.295Z,32.72
2019-05-16T08:49:30.889Z,32.83
2019-05-16T08:52:01.498Z,32.87
2019-05-16T08:54:31.834Z,33.01
2019-05-16T08:57:17.144Z,32.88
2019-05-16T08:59:33.847Z,32.84
2019-05-16T09:02:03.356Z,32.83
2019-05-16T09:04:33.570Z,32.92
2019-05-16T09:07:01.927Z,32.61
2019-05-16T09:10:34.258Z,32.62
2019-05-16T09:11:59.879Z,32.53
2019-05-16T09:14:31.912Z,32.58
2019-05-16T09:16:58.295Z,32.68
2019-05-16T09:19:27.528Z,32.55
2019-05-16T09:21:58.067Z,32.55
2019-05-16T09:24:27.202Z,32.59
2019-05-16T09:26:57.898Z,32.52
2019-05-16T09:29:27.294Z,32.60
2019-05-16T09:32:09.048Z,32.64
2019-05-16T09:34:28.396Z,33.03
2019-05-16T09:37:00.465Z,32.81
2019-05-16T09:39:27.728Z,32.80
2019-05-16T09:41:58.679Z,32.98
2019-05-16T09:44:27.247Z,33.04
2019-05-16T09:46:56.980Z,33.60
2019-05-16T09:49:26.212Z,33.77
2019-05-16T09:51:56.731Z,32.92
2019-05-16T09:54:27.173Z,33.06
2019-05-16T09:56:56.991Z,33.12
2019-05-16T09:59:26.377Z,33.17
2019-05-16T10:01:57.107Z,33.04
2019-05-16T10:04:26.701Z,33.32
2019-05-16T10:06:57.018Z,33.24
2019-05-16T10:09:40.283Z,33.16
2019-05-16T10:12:10.411Z,33.18
2019-05-16T10:14:26.866Z,33.13
2019-05-16T10:16:57.729Z,32.99
2019-05-16T10:19:27.568Z,32.99
2019-05-16T10:22:00.027Z,33.06
2019-05-16T10:24:26.848Z,33.07
2019-05-16T10:26:57.180Z,33.13
2019-05-16T10:29:27.350Z,33.13
2019-05-16T10:31:56.870Z,33.03
2019-05-16T10:34:26.598Z,33.01
2019-05-16T10:36:57.559Z,33.03
2019-05-16T10:39:26.754Z,33.22
2019-05-16T10:41:57.400Z,33.12
2019-05-16T10:44:28.088Z,33.10
2019-05-16T10:46:55.463Z,33.25
2019-05-16T10:49:34.295Z,33.17
2019-05-16T10:51:53.794Z,33.09
2019-05-16T10:54:22.196Z,33.19
2019-05-16T10:56:50.838Z,33.19
2019-05-16T10:59:54.547Z,33.18
2019-05-16T11:01:49.585Z,33.11
2019-05-16T11:04:28.469Z,33.19
2019-05-16T11:06:48.110Z,33.25
2019-05-16T11:09:17.352Z,33.21
2019-05-16T11:11:47.616Z,33.22
2019-05-16T11:14:17.373Z,33.26
2019-05-16T11:16:47.395Z,33.16
2019-05-16T11:19:21.264Z,33.29
2019-05-16T11:21:46.879Z,33.23
2019-05-16T11:24:15.459Z,33.19
2019-05-16T11:26:43.811Z,33.28
2019-05-16T11:29:12.111Z,33.22
2019-05-16T11:31:40.433Z,33.18
2019-05-16T11:34:08.848Z,33.29
2019-05-16T11:36:37.674Z,33.16
2019-05-16T11:39:08.695Z,33.26
2019-05-16T11:41:37.276Z,33.21
2019-05-16T11:44:06.691Z,33.29
2019-05-16T11:46:37.427Z,33.23
2019-05-16T11:49:05.406Z,33.35
2019-05-16T11:51:33.745Z,33.29
2019-05-16T11:54:02.283Z,33.34
2019-05-16T11:56:30.606Z,33.32
2019-05-16T11:58:58.912Z,33.32
2019-05-16T12:01:27.698Z,33.38
2019-05-16T12:03:57.514Z,33.25
2019-05-16T12:06:26.877Z,33.48
2019-05-16T12:08:55.383Z,33.88
2019-05-16T12:11:23.712Z,34.13
2019-05-16T12:13:52.512Z,34.27
2019-05-16T12:16:20.861Z,34.29
2019-05-16T12:18:49.175Z,34.19
2019-05-16T12:21:17.497Z,34.25
2019-05-16T12:23:47.335Z,31.82
2019-05-16T12:26:17.535Z,30.41
2019-05-16T12:28:45.820Z,30.14
2019-05-16T12:31:17.141Z,29.58
2019-05-16T12:33:44.286Z,29.88
2019-05-16T12:36:12.603Z,28.76
2019-05-16T12:38:41.005Z,29.01
2019-05-16T12:41:09.320Z,29.03
2019-05-16T12:43:48.900Z,30.64
2019-05-16T12:46:08.338Z,31.18
2019-05-16T12:48:37.519Z,31.46
2019-05-16T12:51:08.300Z,32.03
2019-05-16T12:53:36.717Z,31.90
2019-05-16T12:56:05.417Z,31.98
2019-05-16T12:58:42.169Z,32.14
2019-05-16T13:01:04.016Z,32.09
2019-05-16T13:03:32.580Z,32.23
2019-05-16T13:06:00.939Z,32.28
2019-05-16T13:08:29.278Z,32.53
2019-05-16T13:10:57.945Z,32.43
2019-05-16T13:13:27.866Z,32.53
2019-05-16T13:15:56.387Z,32.60
2019-05-16T13:18:27.314Z,32.65
2019-05-16T13:20:57.138Z,32.59
2019-05-16T13:23:26.931Z,32.51
2019-05-16T13:25:57.326Z,32.63
2019-05-16T13:28:25.058Z,32.64
2019-05-16T13:30:53.431Z,32.71
2019-05-16T13:33:21.753Z,32.70
2019-05-16T13:35:50.227Z,32.78
2019-05-16T13:38:18.535Z,32.84
2019-05-16T13:40:46.945Z,32.97
2019-05-16T13:43:17.492Z,32.97
2019-05-16T13:45:47.229Z,33.06
2019-05-16T13:48:17.246Z,33.42
2019-05-16T13:50:47.403Z,33.42
2019-05-16T13:53:16.374Z,33.14
2019-05-16T13:55:47.802Z,33.14
2019-05-16T13:58:17.895Z,33.56
2019-05-16T14:00:47.998Z,33.07
2019-05-16T14:03:17.904Z,33.05
2019-05-16T14:05:47.843Z,33.24
2019-05-16T14:08:17.044Z,33.02
2019-05-16T14:10:48.559Z,32.94
2019-05-16T14:13:16.540Z,32.80
2019-05-16T14:15:47.274Z,32.75
2019-05-16T14:18:17.472Z,32.65
2019-05-16T14:20:46.573Z,32.72
2019-05-16T14:23:17.703Z,32.15
2019-05-16T14:25:48.069Z,29.54
2019-05-16T14:28:17.341Z,28.38
2019-05-16T14:30:46.816Z,27.68
2019-05-16T14:33:17.207Z,28.94
2019-05-16T14:35:47.292Z,29.95
2019-05-16T14:38:17.572Z,30.81
2019-05-16T14:40:50.041Z,30.85
2019-05-16T14:43:17.128Z,31.07
2019-05-16T14:45:46.656Z,31.12
2019-05-16T14:48:18.162Z,31.00
2019-05-16T14:50:47.054Z,31.02
2019-05-16T14:53:17.936Z,31.11
2019-05-16T14:55:47.545Z,31.12
2019-05-16T14:58:15.818Z,31.12
2019-05-16T15:00:48.463Z,31.11
2019-05-16T15:03:14.434Z,31.11
2019-05-16T15:05:43.230Z,31.12
2019-05-16T15:08:11.733Z,31.14
2019-05-16T15:10:40.042Z,31.16
2019-05-16T15:13:08.528Z,31.20
2019-05-16T15:15:37.653Z,31.18
2019-05-16T15:18:08.189Z,31.22
2019-05-16T15:20:36.629Z,31.21
2019-05-16T15:23:07.622Z,31.31
2019-05-16T15:25:37.390Z,31.38
2019-05-16T15:28:07.306Z,31.31
2019-05-16T15:30:39.091Z,31.36
2019-05-16T15:33:08.512Z,31.33
2019-05-16T15:35:38.073Z,31.33
2019-05-16T15:38:07.813Z,31.41
2019-05-16T15:40:37.929Z,31.25
2019-05-16T15:43:07.933Z,31.44
2019-05-16T15:45:43.368Z,31.48
2019-05-16T15:48:12.200Z,31.42
2019-05-16T15:50:40.945Z,31.47
2019-05-16T15:53:09.423Z,31.41
2019-05-16T15:55:38.080Z,31.47
2019-05-16T15:58:07.397Z,31.40
2019-05-16T16:00:39.819Z,31.54
2019-05-16T16:03:08.269Z,31.42
2019-05-16T16:05:37.555Z,31.56
2019-05-16T16:08:06.947Z,31.56
2019-05-16T16:10:37.946Z,31.57
2019-05-16T16:13:06.869Z,31.70
2019-05-16T16:15:49.775Z,31.55
2019-05-16T16:18:08.969Z,31.48
2019-05-16T16:20:37.052Z,31.61
2019-05-16T16:23:06.816Z,31.61
2019-05-16T16:25:35.357Z,31.35
2019-05-16T16:28:07.137Z,31.34
2019-05-16T16:30:37.083Z,31.28
2019-05-16T16:33:19.058Z,31.17
2019-05-16T16:35:37.850Z,31.14
2019-05-16T16:38:07.040Z,31.19
2019-05-16T16:40:36.831Z,31.11
2019-05-16T16:43:07.987Z,31.09
2019-05-16T16:45:35.123Z,31.09
2019-05-16T16:48:03.624Z,31.14
2019-05-16T16:50:31.988Z,31.16
2019-05-16T16:53:00.287Z,31.23
2019-05-16T16:55:28.704Z,31.30
2019-05-16T16:57:59.607Z,31.45
2019-05-16T17:00:28.025Z,31.62
2019-05-16T17:03:05.674Z,31.63
2019-05-16T17:05:29.454Z,31.62
2019-05-16T17:07:57.768Z,31.70
2019-05-16T17:10:27.507Z,31.77
2019-05-16T17:12:57.631Z,31.81
2019-05-16T17:15:27.194Z,31.67
2019-05-16T17:17:57.422Z,31.81
2019-05-16T17:20:25.991Z,31.70
2019-05-16T17:22:54.298Z,31.77
2019-05-16T17:25:22.718Z,31.75
2019-05-16T17:27:51.023Z,31.81
2019-05-16T17:30:20.704Z,32.04
2019-05-16T17:32:49.269Z,31.98
2019-05-16T17:35:19.012Z,31.94
2019-05-16T17:37:48.591Z,32.01
2019-05-16T17:40:17.893Z,32.11
2019-05-16T17:42:47.724Z,32.15
2019-05-16T17:45:18.410Z,32.21
2019-05-16T17:47:46.906Z,32.21
2019-05-16T17:50:17.561Z,32.26
2019-05-16T17:52:47.605Z,32.28
2019-05-16T17:55:17.442Z,32.13
2019-05-16T17:57:46.257Z,32.28
2019-05-16T18:00:24.867Z,29.32
2019-05-16T18:02:46.561Z,28.03
2019-05-16T18:05:17.019Z,27.90
2019-05-16T18:07:47.456Z,27.59
2019-05-16T18:10:17.702Z,27.69
2019-05-16T18:12:48.062Z,27.94
2019-05-16T18:15:20.463Z,28.80
2019-05-16T18:17:48.889Z,29.88
2019-05-16T18:20:18.400Z,30.12
2019-05-16T18:22:47.285Z,30.58
2019-05-16T18:25:16.352Z,31.33
2019-05-16T18:27:44.779Z,31.55
2019-05-16T18:30:13.318Z,31.70
2019-05-16T18:32:41.713Z,32.00
2019-05-16T18:35:10.374Z,32.07
2019-05-16T18:37:38.698Z,32.27
2019-05-16T18:40:08.152Z,32.38
2019-05-16T18:42:37.048Z,32.38
2019-05-16T18:45:08.772Z,32.49
2019-05-16T18:47:37.939Z,32.59
2019-05-16T18:50:10.368Z,32.72
2019-05-16T18:52:38.758Z,32.79
2019-05-16T18:55:08.539Z,32.85
2019-05-16T18:57:37.791Z,32.88
2019-05-16T19:00:10.575Z,32.93
2019-05-16T19:02:37.516Z,32.91
2019-05-16T19:05:07.165Z,33.03
2019-05-16T19:07:36.914Z,33.06
2019-05-16T19:10:07.346Z,33.15
2019-05-16T19:12:37.243Z,33.19
2019-05-16T19:15:08.888Z,33.26
2019-05-16T19:17:37.496Z,33.33
2019-05-16T19:20:06.802Z,33.13
2019-05-16T19:22:37.177Z,33.21
2019-05-16T19:25:07.084Z,33.22
2019-05-16T19:27:37.093Z,33.17
2019-05-16T19:30:07.286Z,33.21
2019-05-16T19:32:39.074Z,33.21
2019-05-16T19:35:07.377Z,33.28
2019-05-16T19:37:40.492Z,33.32
2019-05-16T19:40:06.568Z,33.34
2019-05-16T19:42:36.808Z,33.37
2019-05-16T19:45:09.017Z,33.34
2019-05-16T19:47:41.063Z,33.42
2019-05-16T19:50:07.732Z,33.34
2019-05-16T19:52:36.703Z,33.17
2019-05-16T19:55:09.369Z,33.27
2019-05-16T19:57:37.746Z,33.07
2019-05-16T20:00:07.491Z,33.07
2019-05-16T20:02:36.839Z,33.19
2019-05-16T20:05:06.631Z,33.30
2019-05-16T20:07:37.267Z,33.40
2019-05-16T20:10:09.397Z,33.50
2019-05-16T20:12:37.209Z,33.67
2019-05-16T20:17:52.161Z,33.64
2019-05-16T20:20:11.635Z,33.67
2019-05-16T20:22:40.114Z,33.62
2019-05-16T20:25:08.754Z,33.68
2019-05-16T20:27:37.175Z,33.64
2019-05-16T20:30:07.037Z,33.70
2019-05-16T20:32:37.174Z,33.69
2019-05-16T20:35:08.783Z,33.74
2019-05-16T20:37:36.827Z,33.73
2019-05-16T20:40:09.214Z,33.78
2019-05-16T20:42:36.942Z,33.81
2019-05-16T20:45:08.097Z,33.82
2019-05-16T20:47:36.436Z,33.80
2019-05-16T20:50:07.620Z,33.90
2019-05-16T20:52:37.801Z,33.92
2019-05-16T20:55:07.381Z,33.92
2019-05-16T20:57:37.813Z,33.85
2019-05-16T21:00:07.202Z,33.96
2019-05-16T21:02:37.930Z,33.97
2019-05-16T21:05:06.782Z,33.40
2019-05-16T21:07:37.594Z,33.13
2019-05-16T21:10:08.033Z,33.67
2019-05-16T21:12:40.060Z,33.65
2019-05-16T21:15:07.395Z,33.53
2019-05-16T21:17:35.855Z,33.60
2019-05-16T21:20:07.214Z,33.58
2019-05-16T21:22:37.131Z,33.55
2019-05-16T21:25:06.351Z,33.50
2019-05-16T21:27:37.617Z,33.60
2019-05-16T21:30:07.518Z,33.73
2019-05-16T21:32:36.650Z,33.70
2019-05-16T21:35:07.246Z,33.79
2019-05-16T21:37:37.411Z,33.77
2019-05-16T21:40:08.183Z,33.79
2019-05-16T21:42:36.645Z,33.76
2019-05-16T21:45:07.153Z,33.77
2019-05-16T21:47:36.917Z,33.80
2019-05-16T21:50:07.825Z,33.77
2019-05-16T21:52:36.523Z,33.78
2019-05-16T21:55:07.252Z,33.82
2019-05-16T21:57:37.708Z,33.79
2019-05-16T22:00:13.388Z,33.81
2019-05-16T22:02:41.757Z,33.86
2019-05-16T22:05:10.323Z,33.84
2019-05-16T22:07:38.683Z,33.84
2019-05-16T22:10:07.447Z,33.82
2019-05-16T22:12:38.203Z,33.80
2019-05-16T22:15:06.779Z,33.76
2019-05-16T22:17:36.640Z,33.82
2019-05-16T22:20:07.144Z,33.77
2019-05-16T22:22:38.607Z,33.79
2019-05-16T22:25:07.793Z,33.78
2019-05-16T22:27:36.481Z,33.78
2019-05-16T22:30:08.149Z,33.81
2019-05-16T22:32:36.445Z,33.81
2019-05-16T22:35:08.050Z,33.78
2019-05-16T22:37:48.856Z,33.83
2019-05-16T22:40:06.925Z,33.86
2019-05-16T22:42:37.286Z,33.86
2019-05-16T22:45:10.699Z,33.82
2019-05-16T22:47:39.039Z,33.86
2019-05-16T22:50:07.990Z,33.80
2019-05-16T22:52:36.854Z,33.87
2019-05-16T22:55:07.495Z,33.84
2019-05-16T22:57:35.840Z,33.87
2019-05-16T23:00:10.939Z,33.86
2019-05-16T23:02:39.317Z,33.89
2019-05-16T23:05:07.692Z,33.90
2019-05-16T23:07:36.733Z,33.99
2019-05-16T23:10:07.378Z,33.86
2019-05-16T23:12:37.172Z,33.86
2019-05-16T23:15:07.007Z,33.90
2019-05-16T23:17:37.533Z,33.90
2019-05-16T23:20:06.493Z,33.92
2019-05-16T23:22:36.757Z,33.99
2019-05-16T23:25:06.725Z,33.93
2019-05-16T23:27:36.844Z,33.96
2019-05-16T23:30:09.052Z,33.96
2019-05-16T23:32:37.398Z,34.03
2019-05-16T23:35:07.292Z,34.01
2019-05-16T23:37:37.017Z,33.95
2019-05-16T23:40:09.679Z,33.96
2019-05-16T23:42:37.986Z,33.99
2019-05-16T23:45:09.240Z,34.00
2019-05-16T23:47:37.714Z,34.04
2019-05-16T23:50:07.928Z,33.97
2019-05-16T23:52:36.927Z,34.03
2019-05-16T23:55:08.326Z,34.00
2019-05-16T23:57:37.515Z,34.02
